MSC Annamaria — H3HN — position and weather

sailwx.info

Track history (hours):
 
Tides and Currents Weather Stations Pressure Air Temp Water Temp Dewpoint Dewpoint Depression Visibility Wind Speed Wind Dir Waves Ship Positions

MSC Annamaria

Last reported at 2016-Dec-09 11:27 UTC. Time now 2016-Dec-09 11:46 UTC.
Position N 45°22' E 012°26'.

Length 188 m; draft 7.7 m.

Type: Ship (hazmat cat A). MMSI: 353852000.

Date/timePositionNaut miles runAvg speedWind from/ knotsBaromVisibWave heightAir tempDewpointWater temp
2016-Dec-09 11:27N 45°22' E 012°26'0 0.0
2016-Dec-09 10:30N 45°22' E 012°26'0 0.0
2016-Dec-09 09:33N 45°22' E 012°26'0 0.0
2016-Dec-09 08:34N 45°22' E 012°26'0 0.1
2016-Dec-09 07:32N 45°22' E 012°26'0 0.1
2016-Dec-09 06:29N 45°22' E 012°26'0 0.0
2016-Dec-09 05:33N 45°22' E 012°26'0 0.1
2016-Dec-09 04:31N 45°22' E 012°26'0 0.1
2016-Dec-09 03:26N 45°22' E 012°26'0 0.0
2016-Dec-09 02:28N 45°22' E 012°26'0 0.0
2016-Dec-09 01:33N 45°22' E 012°26'0 0.0
2016-Dec-09 00:30N 45°22' E 012°26'0 0.0
2016-Dec-08 23:33N 45°22' E 012°26'0 0.0
2016-Dec-08 22:29N 45°22' E 012°26'0 0.0
2016-Dec-08 21:33N 45°22' E 012°26'0 0.0
2016-Dec-08 20:30N 45°22' E 012°26'0 0.0
2016-Dec-08 19:33N 45°22' E 012°26'0 0.1
2016-Dec-08 18:30N 45°22' E 012°26'2 1.7
2016-Dec-08 17:33N 45°21' E 012°26'10 9.8
2016-Dec-08 16:33N 45°21' E 012°40'1312.8
2016-Dec-08 15:33N 45°26' E 012°57'1312.9
2016-Dec-08 14:33N 45°32' E 013°13'1312.9
2016-Dec-08 13:34N 45°37' E 013°30'11 9.7
2016-Dec-08 12:29N 45°33' E 013°44'0 0.0
2016-Dec-08 11:32N 45°33' E 013°44'0 0.0
2016-Dec-08 10:30N 45°33' E 013°44'0 0.0
2016-Dec-08 09:27N 45°33' E 013°44'0 0.0
2016-Dec-08 08:30N 45°33' E 013°44'0 0.0
2016-Dec-08 07:32N 45°33' E 013°44'0 0.0
2016-Dec-08 06:31N 45°33' E 013°44'0 0.0
2016-Dec-08 05:33N 45°33' E 013°44'0 0.0
2016-Dec-08 04:13N 45°33' E 013°44'0 0.0
2016-Dec-08 03:33N 45°33' E 013°44'0 0.0
2016-Dec-08 02:34N 45°33' E 013°44'2 1.5
2016-Dec-08 01:33N 45°34' E 013°42'1 0.7
2016-Dec-08 00:32N 45°34' E 013°42'0 0.0
2016-Dec-07 23:31N 45°34' E 013°42'0 0.0
2016-Dec-07 22:32N 45°34' E 013°42'0 0.1
2016-Dec-07 21:26N 45°34' E 013°42'0 0.0
2016-Dec-07 20:28N 45°34' E 013°42'0 0.0
2016-Dec-07 19:26N 45°34' E 013°42'0 0.0
2016-Dec-07 18:29N 45°34' E 013°42'0 0.0
2016-Dec-07 17:32N 45°34' E 013°42'5 4.8
2016-Dec-07 16:33N 45°35' E 013°35'1212.0
2016-Dec-07 15:34N 45°29' E 013°20'1312.5
2016-Dec-07 14:33N 45°17' E 013°14'1313.3
2016-Dec-07 13:33N 45°04' E 013°19'1313.1
2016-Dec-07 12:33N 44°53' E 013°27'1313.3
2016-Dec-07 11:33N 44°41' E 013°37'1413.5
2016-Dec-07 10:33N 44°30' E 013°47'1313.1
2016-Dec-07 09:33N 44°19' E 013°57'394 9.6
2016-Dec-05 16:18N 37°53' E 015°44'911.6
2016-Dec-05 15:33N 37°59' E 015°36'1312.5
2016-Dec-05 14:33N 38°11' E 015°36'1010.2
2016-Dec-05 13:34N 38°20' E 015°43'1110.6
2016-Dec-05 12:34N 38°27' E 015°53'1 1.3
2016-Dec-05 11:24N 38°27' E 015°54'0 0.0
2016-Dec-05 10:28N 38°27' E 015°54'0 0.0
2016-Dec-05 09:31N 38°27' E 015°54'0 0.0
2016-Dec-05 08:30N 38°27' E 015°54'0 0.0
2016-Dec-05 07:31N 38°27' E 015°54'0 0.0
2016-Dec-05 06:30N 38°27' E 015°54'0 0.0
2016-Dec-05 05:32N 38°27' E 015°54'0 0.0
2016-Dec-05 04:28N 38°27' E 015°54'0 0.0
2016-Dec-05 03:32N 38°27' E 015°54'0 0.0
2016-Dec-05 02:27N 38°27' E 015°54'0 0.0
2016-Dec-04 23:25N 38°27' E 015°54'0 0.0
2016-Dec-04 22:30N 38°27' E 015°54'0 0.0
2016-Dec-04 21:32N 38°27' E 015°54'0 0.0
2016-Dec-04 20:29N 38°27' E 015°54'0 0.0
2016-Dec-04 19:34N 38°27' E 015°54'0 0.0
2016-Dec-04 18:30N 38°27' E 015°54'0 0.0
2016-Dec-04 17:33N 38°27' E 015°54'0 0.0
2016-Dec-04 16:30N 38°27' E 015°54'0 0.0
2016-Dec-04 14:26N 38°27' E 015°54'0 0.0
2016-Dec-04 13:32N 38°27' E 015°54'0 0.0
2016-Dec-04 12:30N 38°27' E 015°54'0 0.0
2016-Dec-04 11:33N 38°27' E 015°54'0 0.0
2016-Dec-04 10:29N 38°27' E 015°54'0 0.0
2016-Dec-04 09:31N 38°27' E 015°54'0 0.5
2016-Dec-04 08:33N 38°27' E 015°54'6 6.5
2016-Dec-04 07:33N 38°28' E 015°46'5 5.1
2016-Dec-04 06:33N 38°29' E 015°40'1 0.9
2016-Dec-04 05:33N 38°29' E 015°41'1 0.8
2016-Dec-04 04:33N 38°28' E 015°41'1 0.7
2016-Dec-04 03:32N 38°28' E 015°42'0 0.5
2016-Dec-04 02:33N 38°28' E 015°43'0 0.3
2016-Dec-04 01:32N 38°28' E 015°43'0 0.4
2016-Dec-04 00:33N 38°28' E 015°44'0 0.3
2016-Dec-03 23:34N 38°29' E 015°44'0 0.1
2016-Dec-03 22:33N 38°29' E 015°44'0 0.2
2016-Dec-03 21:32N 38°29' E 015°44'1 0.6
2016-Dec-03 20:33N 38°29' E 015°43'0 0.4
2016-Dec-03 19:33N 38°29' E 015°43'0 0.4
2016-Dec-03 18:33N 38°29' E 015°44'0 0.2
2016-Dec-03 17:33N 38°29' E 015°44'1 1.0
2016-Dec-03 16:33N 38°29' E 015°42'1 0.9
2016-Dec-03 15:33N 38°29' E 015°41'1 0.7
2016-Dec-03 14:33N 38°29' E 015°41'0 0.4
2016-Dec-03 13:33N 38°29' E 015°40'2 2.4
2016-Dec-03 12:33N 38°29' E 015°37'1414.5
2016-Dec-03 11:34N 38°22' E 015°21'1514.5
2016-Dec-03 10:33N 38°19' E 015°03'1414.2
2016-Dec-03 09:33N 38°18' E 014°44'1414.0
2016-Dec-03 08:33N 38°17' E 014°27'1414.0
2016-Dec-03 07:33N 38°17' E 014°09'1414.2
2016-Dec-03 06:33N 38°16' E 013°51'1413.8
2016-Dec-03 05:33N 38°16' E 013°33'1414.2
2016-Dec-03 04:33N 38°15' E 013°15'1414.4
2016-Dec-03 03:33N 38°14' E 012°57'1514.5
2016-Dec-03 02:33N 38°13' E 012°38'  
2016-Nov-30 13:04N 35°60' W 005°14'510.2
2016-Nov-30 12:33N 35°59' W 005°20'  
Track history (hours):
 
Tides and Currents Weather Stations Pressure Air Temp Water Temp Dewpoint Dewpoint Depression Visibility Wind Speed Wind Dir Waves Ship Positions

MSC Annamaria

Last reported at 2016-Dec-09 11:27 UTC. Time now 2016-Dec-09 11:46 UTC.
Position N 45°22' E 012°26'.

Length 188 m; draft 7.7 m.

Type: Ship (hazmat cat A). MMSI: 353852000.

Date/timePositionNaut miles runAvg speedWind from/ knotsBaromVisibWave heightAir tempDewpointWater temp
2016-Dec-09 11:27N 45°22' E 012°26'0 0.0
2016-Dec-09 10:30N 45°22' E 012°26'0 0.0
2016-Dec-09 09:33N 45°22' E 012°26'0 0.0
2016-Dec-09 08:34N 45°22' E 012°26'0 0.1
2016-Dec-09 07:32N 45°22' E 012°26'0 0.1
2016-Dec-09 06:29N 45°22' E 012°26'0 0.0
2016-Dec-09 05:33N 45°22' E 012°26'0 0.1
2016-Dec-09 04:31N 45°22' E 012°26'0 0.1
2016-Dec-09 03:26N 45°22' E 012°26'0 0.0
2016-Dec-09 02:28N 45°22' E 012°26'0 0.0
2016-Dec-09 01:33N 45°22' E 012°26'0 0.0
2016-Dec-09 00:30N 45°22' E 012°26'0 0.0
2016-Dec-08 23:33N 45°22' E 012°26'0 0.0
2016-Dec-08 22:29N 45°22' E 012°26'0 0.0
2016-Dec-08 21:33N 45°22' E 012°26'0 0.0
2016-Dec-08 20:30N 45°22' E 012°26'0 0.0
2016-Dec-08 19:33N 45°22' E 012°26'0 0.1
2016-Dec-08 18:30N 45°22' E 012°26'2 1.7
2016-Dec-08 17:33N 45°21' E 012°26'10 9.8
2016-Dec-08 16:33N 45°21' E 012°40'1312.8
2016-Dec-08 15:33N 45°26' E 012°57'1312.9
2016-Dec-08 14:33N 45°32' E 013°13'1312.9
2016-Dec-08 13:34N 45°37' E 013°30'11 9.7
2016-Dec-08 12:29N 45°33' E 013°44'0 0.0
2016-Dec-08 11:32N 45°33' E 013°44'0 0.0
2016-Dec-08 10:30N 45°33' E 013°44'0 0.0
2016-Dec-08 09:27N 45°33' E 013°44'0 0.0
2016-Dec-08 08:30N 45°33' E 013°44'0 0.0
2016-Dec-08 07:32N 45°33' E 013°44'0 0.0
2016-Dec-08 06:31N 45°33' E 013°44'0 0.0
2016-Dec-08 05:33N 45°33' E 013°44'0 0.0
2016-Dec-08 04:13N 45°33' E 013°44'0 0.0
2016-Dec-08 03:33N 45°33' E 013°44'0 0.0
2016-Dec-08 02:34N 45°33' E 013°44'2 1.5
2016-Dec-08 01:33N 45°34' E 013°42'1 0.7
2016-Dec-08 00:32N 45°34' E 013°42'0 0.0
2016-Dec-07 23:31N 45°34' E 013°42'0 0.0
2016-Dec-07 22:32N 45°34' E 013°42'0 0.1
2016-Dec-07 21:26N 45°34' E 013°42'0 0.0
2016-Dec-07 20:28N 45°34' E 013°42'0 0.0
2016-Dec-07 19:26N 45°34' E 013°42'0 0.0
2016-Dec-07 18:29N 45°34' E 013°42'0 0.0
2016-Dec-07 17:32N 45°34' E 013°42'5 4.8
2016-Dec-07 16:33N 45°35' E 013°35'1212.0
2016-Dec-07 15:34N 45°29' E 013°20'1312.5
2016-Dec-07 14:33N 45°17' E 013°14'1313.3
2016-Dec-07 13:33N 45°04' E 013°19'1313.1
2016-Dec-07 12:33N 44°53' E 013°27'1313.3
2016-Dec-07 11:33N 44°41' E 013°37'1413.5
2016-Dec-07 10:33N 44°30' E 013°47'1313.1
2016-Dec-07 09:33N 44°19' E 013°57'394 9.6
2016-Dec-05 16:18N 37°53' E 015°44'911.6
2016-Dec-05 15:33N 37°59' E 015°36'1312.5
2016-Dec-05 14:33N 38°11' E 015°36'1010.2
2016-Dec-05 13:34N 38°20' E 015°43'1110.6
2016-Dec-05 12:34N 38°27' E 015°53'1 1.3
2016-Dec-05 11:24N 38°27' E 015°54'0 0.0
2016-Dec-05 10:28N 38°27' E 015°54'0 0.0
2016-Dec-05 09:31N 38°27' E 015°54'0 0.0
2016-Dec-05 08:30N 38°27' E 015°54'0 0.0
2016-Dec-05 07:31N 38°27' E 015°54'0 0.0
2016-Dec-05 06:30N 38°27' E 015°54'0 0.0
2016-Dec-05 05:32N 38°27' E 015°54'0 0.0
2016-Dec-05 04:28N 38°27' E 015°54'0 0.0
2016-Dec-05 03:32N 38°27' E 015°54'0 0.0
2016-Dec-05 02:27N 38°27' E 015°54'0 0.0
2016-Dec-04 23:25N 38°27' E 015°54'0 0.0
2016-Dec-04 22:30N 38°27' E 015°54'0 0.0
2016-Dec-04 21:32N 38°27' E 015°54'0 0.0
2016-Dec-04 20:29N 38°27' E 015°54'0 0.0
2016-Dec-04 19:34N 38°27' E 015°54'0 0.0
2016-Dec-04 18:30N 38°27' E 015°54'0 0.0
2016-Dec-04 17:33N 38°27' E 015°54'0 0.0
2016-Dec-04 16:30N 38°27' E 015°54'0 0.0
2016-Dec-04 14:26N 38°27' E 015°54'0 0.0
2016-Dec-04 13:32N 38°27' E 015°54'0 0.0
2016-Dec-04 12:30N 38°27' E 015°54'0 0.0
2016-Dec-04 11:33N 38°27' E 015°54'0 0.0
2016-Dec-04 10:29N 38°27' E 015°54'0 0.0
2016-Dec-04 09:31N 38°27' E 015°54'0 0.5
2016-Dec-04 08:33N 38°27' E 015°54'6 6.5
2016-Dec-04 07:33N 38°28' E 015°46'5 5.1
2016-Dec-04 06:33N 38°29' E 015°40'1 0.9
2016-Dec-04 05:33N 38°29' E 015°41'1 0.8
2016-Dec-04 04:33N 38°28' E 015°41'1 0.7
2016-Dec-04 03:32N 38°28' E 015°42'0 0.5
2016-Dec-04 02:33N 38°28' E 015°43'0 0.3
2016-Dec-04 01:32N 38°28' E 015°43'0 0.4
2016-Dec-04 00:33N 38°28' E 015°44'0 0.3
2016-Dec-03 23:34N 38°29' E 015°44'0 0.1
2016-Dec-03 22:33N 38°29' E 015°44'0 0.2
2016-Dec-03 21:32N 38°29' E 015°44'1 0.6
2016-Dec-03 20:33N 38°29' E 015°43'0 0.4
2016-Dec-03 19:33N 38°29' E 015°43'0 0.4
2016-Dec-03 18:33N 38°29' E 015°44'0 0.2
2016-Dec-03 17:33N 38°29' E 015°44'1 1.0
2016-Dec-03 16:33N 38°29' E 015°42'1 0.9
2016-Dec-03 15:33N 38°29' E 015°41'1 0.7
2016-Dec-03 14:33N 38°29' E 015°41'0 0.4
2016-Dec-03 13:33N 38°29' E 015°40'2 2.4
2016-Dec-03 12:33N 38°29' E 015°37'1414.5
2016-Dec-03 11:34N 38°22' E 015°21'1514.5
2016-Dec-03 10:33N 38°19' E 015°03'1414.2
2016-Dec-03 09:33N 38°18' E 014°44'1414.0
2016-Dec-03 08:33N 38°17' E 014°27'1414.0
2016-Dec-03 07:33N 38°17' E 014°09'1414.2
2016-Dec-03 06:33N 38°16' E 013°51'1413.8
2016-Dec-03 05:33N 38°16' E 013°33'1414.2
2016-Dec-03 04:33N 38°15' E 013°15'1414.4
2016-Dec-03 03:33N 38°14' E 012°57'1514.5
2016-Dec-03 02:33N 38°13' E 012°38'  
2016-Nov-30 13:04N 35°60' W 005°14'510.2
2016-Nov-30 12:33N 35°59' W 005°20'  

Dump ship's entire track history